sensor_id;sensor_type;location;lat;lon;timestamp;pressure;altitude;pressure_sealevel;temperature;humidity
68230;BME280;55048;52.220;5.160;2023-08-12T00:00:54;101655.16;;;21.79;88.63
68230;BME280;55048;52.220;5.160;2023-08-12T00:03:19;101664.66;;;21.77;88.94
68230;BME280;55048;52.220;5.160;2023-08-12T00:05:45;101606.84;;;21.49;88.67
68230;BME280;55048;52.220;5.160;2023-08-12T00:08:11;101556.84;;;21.22;88.72
68230;BME280;55048;52.220;5.160;2023-08-12T00:10:36;101658.84;;;21.88;88.21
68230;BME280;55048;52.220;5.160;2023-08-12T00:13:02;101562.25;;;21.22;88.67
68230;BME280;55048;52.220;5.160;2023-08-12T00:15:27;101523.84;;;21.01;88.94
68230;BME280;55048;52.220;5.160;2023-08-12T00:17:52;101605.47;;;21.51;89.04
68230;BME280;55048;52.220;5.160;2023-08-12T00:20:18;101455.94;;;20.60;88.51
68230;BME280;55048;52.220;5.160;2023-08-12T00:22:43;101570.28;;;21.32;88.88
68230;BME280;55048;52.220;5.160;2023-08-12T00:25:09;101636.84;;;21.71;89.36
68230;BME280;55048;52.220;5.160;2023-08-12T00:27:35;101558.78;;;21.17;89.14
68230;BME280;55048;52.220;5.160;2023-08-12T00:30:00;101596.47;;;21.37;89.86
68230;BME280;55048;52.220;5.160;2023-08-12T00:32:26;101635.47;;;21.55;90.64
68230;BME280;55048;52.220;5.160;2023-08-12T00:34:51;101582.50;;;21.25;90.33
68230;BME280;55048;52.220;5.160;2023-08-12T00:37:17;101592.44;;;21.29;90.67
68230;BME280;55048;52.220;5.160;2023-08-12T00:39:42;101563.47;;;21.11;90.72
68230;BME280;55048;52.220;5.160;2023-08-12T00:42:08;101636.34;;;21.50;91.29
68230;BME280;55048;52.220;5.160;2023-08-12T00:44:33;101646.28;;;21.55;91.59
68230;BME280;55048;52.220;5.160;2023-08-12T00:46:59;101533.38;;;20.94;nan
68230;BME280;55048;52.220;5.160;2023-08-12T00:49:25;101572.13;;;21.13;92.04
68230;BME280;55048;52.220;5.160;2023-08-12T00:51:52;101424.53;;;20.16;92.45
68230;BME280;55048;52.220;5.160;2023-08-12T00:54:18;101578.56;;;21.17;92.19
68230;BME280;55048;52.220;5.160;2023-08-12T00:56:44;101385.84;;;19.97;92.33
68230;BME280;55048;52.220;5.160;2023-08-12T00:59:11;101621.47;;;21.48;92.44
68230;BME280;55048;52.220;5.160;2023-08-12T01:01:40;101524.03;;;20.86;92.05
68230;BME280;55048;52.220;5.160;2023-08-12T01:04:09;101581.25;;;21.17;91.90
68230;BME280;55048;52.220;5.160;2023-08-12T01:06:35;101533.09;;;20.95;92.41
68230;BME280;55048;52.220;5.160;2023-08-12T01:09:01;101626.00;;;21.52;92.13
68230;BME280;55048;52.220;5.160;2023-08-12T01:11:51;101618.47;;;21.49;93.51
68230;BME280;55048;52.220;5.160;2023-08-12T01:17:04;101618.19;;;21.51;93.05
68230;BME280;55048;52.220;5.160;2023-08-12T01:19:34;101603.63;;;21.47;93.77
68230;BME280;55048;52.220;5.160;2023-08-12T01:22:02;101569.09;;;21.14;94.11
68230;BME280;55048;52.220;5.160;2023-08-12T01:24:43;101572.84;;;21.19;93.98
68230;BME280;55048;52.220;5.160;2023-08-12T01:27:10;101529.38;;;20.91;93.73
68230;BME280;55048;52.220;5.160;2023-08-12T01:29:42;101490.69;;;20.72;93.87
68230;BME280;55048;52.220;5.160;2023-08-12T01:37:54;101587.41;;;21.47;93.43
68230;BME280;55048;52.220;5.160;2023-08-12T01:40:21;101573.13;;;21.41;93.20
68230;BME280;55048;52.220;5.160;2023-08-12T01:42:47;101555.50;;;21.20;93.47
68230;BME280;55048;52.220;5.160;2023-08-12T01:45:13;101527.00;;;21.08;93.69
68230;BME280;55048;52.220;5.160;2023-08-12T01:47:43;101494.00;;;20.87;94.02
68230;BME280;55048;52.220;5.160;2023-08-12T01:50:09;101473.59;;;20.76;94.31
68230;BME280;55048;52.220;5.160;2023-08-12T01:52:35;101551.38;;;21.27;94.26
68230;BME280;55048;52.220;5.160;2023-08-12T01:55:00;101521.28;;;21.10;94.49
68230;BME280;55048;52.220;5.160;2023-08-12T01:57:26;101520.91;;;21.17;94.48
68230;BME280;55048;52.220;5.160;2023-08-12T01:59:51;101555.69;;;21.28;94.73
68230;BME280;55048;52.220;5.160;2023-08-12T02:02:17;101557.53;;;21.33;94.45
68230;BME280;55048;52.220;5.160;2023-08-12T02:04:42;101509.44;;;21.06;94.57
68230;BME280;55048;52.220;5.160;2023-08-12T02:07:09;101558.19;;;21.44;95.10
68230;BME280;55048;52.220;5.160;2023-08-12T02:09:35;101520.66;;;21.18;94.89
68230;BME280;55048;52.220;5.160;2023-08-12T02:12:01;101467.47;;;20.89;94.68
68230;BME280;55048;52.220;5.160;2023-08-12T02:14:26;101535.22;;;21.22;95.27
68230;BME280;55048;52.220;5.160;2023-08-12T02:16:52;101565.03;;;21.41;95.31
68230;BME280;55048;52.220;5.160;2023-08-12T02:19:17;101432.47;;;20.55;95.71
68230;BME280;55048;52.220;5.160;2023-08-12T02:21:42;101466.16;;;20.87;96.00
68230;BME280;55048;52.220;5.160;2023-08-12T02:24:08;101518.22;;;21.17;96.20
68230;BME280;55048;52.220;5.160;2023-08-12T02:26:37;101549.66;;;21.36;96.25
68230;BME280;55048;52.220;5.160;2023-08-12T02:29:03;101354.63;;;20.15;96.72
68230;BME280;55048;52.220;5.160;2023-08-12T02:31:29;101494.09;;;21.01;96.84
68230;BME280;55048;52.220;5.160;2023-08-12T02:33:54;101498.78;;;21.14;96.82
68230;BME280;55048;52.220;5.160;2023-08-12T02:36:20;101523.47;;;21.32;97.04
68230;BME280;55048;52.220;5.160;2023-08-12T02:38:45;101490.00;;;21.04;96.44
68230;BME280;55048;52.220;5.160;2023-08-12T02:41:11;101469.25;;;20.99;96.60
68230;BME280;55048;52.220;5.160;2023-08-12T02:43:36;101368.19;;;20.28;97.36
68230;BME280;55048;52.220;5.160;2023-08-12T02:46:02;101335.47;;;20.11;96.97
68230;BME280;55048;52.220;5.160;2023-08-12T02:48:27;101420.84;;;20.79;97.13
68230;BME280;55048;52.220;5.160;2023-08-12T02:50:53;101490.38;;;21.16;97.18
68230;BME280;55048;52.220;5.160;2023-08-12T02:53:18;101364.69;;;20.28;97.04
68230;BME280;55048;52.220;5.160;2023-08-12T02:55:47;101513.88;;;21.39;97.25
68230;BME280;55048;52.220;5.160;2023-08-12T02:58:12;101507.44;;;21.35;97.62
68230;BME280;55048;52.220;5.160;2023-08-12T03:00:41;101493.41;;;21.33;97.38
68230;BME280;55048;52.220;5.160;2023-08-12T03:03:09;101493.22;;;21.25;98.25
68230;BME280;55048;52.220;5.160;2023-08-12T03:05:34;101379.78;;;20.58;98.21
68230;BME280;55048;52.220;5.160;2023-08-12T03:08:00;101429.63;;;20.89;98.49
68230;BME280;55048;52.220;5.160;2023-08-12T03:10:29;101407.13;;;20.75;98.25
68230;BME280;55048;52.220;5.160;2023-08-12T03:12:54;101498.53;;;21.35;98.66
68230;BME280;55048;52.220;5.160;2023-08-12T03:15:21;101442.47;;;20.98;98.81
68230;BME280;55048;52.220;5.160;2023-08-12T03:17:47;101419.69;;;20.85;98.83
68230;BME280;55048;52.220;5.160;2023-08-12T03:20:12;101436.72;;;21.04;98.96
68230;BME280;55048;52.220;5.160;2023-08-12T03:22:38;101442.13;;;21.04;99.56
68230;BME280;55048;52.220;5.160;2023-08-12T03:25:05;101471.81;;;21.28;99.18
68230;BME280;55048;52.220;5.160;2023-08-12T03:27:31;101429.19;;;21.01;99.24
68230;BME280;55048;52.220;5.160;2023-08-12T03:29:57;101356.56;;;20.57;99.25
68230;BME280;55048;52.220;5.160;2023-08-12T03:32:24;101405.38;;;20.84;99.76
68230;BME280;55048;52.220;5.160;2023-08-12T03:34:51;101464.13;;;21.17;99.95
68230;BME280;55048;52.220;5.160;2023-08-12T03:37:18;101441.47;;;21.12;99.71
68230;BME280;55048;52.220;5.160;2023-08-12T03:39:46;101355.69;;;20.61;100.00
68230;BME280;55048;52.220;5.160;2023-08-12T03:42:12;101450.56;;;21.22;99.86
68230;BME280;55048;52.220;5.160;2023-08-12T03:44:38;101420.19;;;21.25;99.86
68230;BME280;55048;52.220;5.160;2023-08-12T03:47:05;101405.78;;;21.10;99.70
68230;BME280;55048;52.220;5.160;2023-08-12T03:49:30;101419.97;;;21.21;100.00
68230;BME280;55048;52.220;5.160;2023-08-12T03:51:56;101417.88;;;21.18;100.00
68230;BME280;55048;52.220;5.160;2023-08-12T03:54:21;101401.25;;;21.06;100.00
68230;BME280;55048;52.220;5.160;2023-08-12T03:56:47;101443.66;;;21.29;100.00
68230;BME280;55048;52.220;5.160;2023-08-12T03:59:12;101437.75;;;21.27;100.00
68230;BME280;55048;52.220;5.160;2023-08-12T04:01:38;101445.50;;;21.34;100.00
68230;BME280;55048;52.220;5.160;2023-08-12T04:04:04;101431.81;;;21.25;100.00
68230;BME280;55048;52.220;5.160;2023-08-12T04:06:29;101451.50;;;21.31;100.00
68230;BME280;55048;52.220;5.160;2023-08-12T04:08:55;101437.63;;;21.37;100.00
68230;BME280;55048;52.220;5.160;2023-08-12T04:11:20;101439.22;;;21.38;100.00
68230;BME280;55048;52.220;5.160;2023-08-12T04:13:46;101428.22;;;21.30;100.00
68230;BME280;55048;52.220;5.160;2023-08-12T04:16:12;101395.44;;;21.18;100.00
68230;BME280;55048;52.220;5.160;2023-08-12T04:18:37;101417.41;;;21.30;100.00
68230;BME280;55048;52.220;5.160;2023-08-12T04:21:03;101395.44;;;21.18;100.00
68230;BME280;55048;52.220;5.160;2023-08-12T04:23:28;101418.47;;;21.34;100.00
68230;BME280;55048;52.220;5.160;2023-08-12T04:25:54;101324.41;;;20.74;100.00
68230;BME280;55048;52.220;5.160;2023-08-12T04:28:23;101398.13;;;21.18;100.00
68230;BME280;55048;52.220;5.160;2023-08-12T04:30:49;101329.59;;;20.89;100.00
68230;BME280;55048;52.220;5.160;2023-08-12T04:33:16;101415.59;;;21.44;100.00
68230;BME280;55048;52.220;5.160;2023-08-12T04:35:42;101348.59;;;21.03;100.00
68230;BME280;55048;52.220;5.160;2023-08-12T04:38:08;101414.28;;;21.42;100.00
68230;BME280;55048;52.220;5.160;2023-08-12T04:40:38;101298.47;;;20.73;100.00
68230;BME280;55048;52.220;5.160;2023-08-12T04:43:03;101391.03;;;21.41;100.00
68230;BME280;55048;52.220;5.160;2023-08-12T04:45:29;101289.56;;;20.73;100.00
68230;BME280;55048;52.220;5.160;2023-08-12T04:47:56;101402.28;;;21.48;100.00
68230;BME280;55048;52.220;5.160;2023-08-12T04:50:22;101225.91;;;20.48;100.00
68230;BME280;55048;52.220;5.160;2023-08-12T04:52:48;101227.81;;;20.42;100.00
68230;BME280;55048;52.220;5.160;2023-08-12T04:55:13;101178.06;;;20.10;100.00
68230;BME280;55048;52.220;5.160;2023-08-12T04:57:40;101239.56;;;20.56;100.00
68230;BME280;55048;52.220;5.160;2023-08-12T05:00:06;101237.44;;;20.53;100.00
68230;BME280;55048;52.220;5.160;2023-08-12T05:02:35;101284.78;;;20.83;100.00
68230;BME280;55048;52.220;5.160;2023-08-12T05:05:01;101366.25;;;21.33;100.00
68230;BME280;55048;52.220;5.160;2023-08-12T05:07:28;101400.38;;;21.48;100.00
68230;BME280;55048;52.220;5.160;2023-08-12T05:09:53;101351.94;;;21.33;100.00
68230;BME280;55048;52.220;5.160;2023-08-12T05:12:19;101289.63;;;20.86;100.00
68230;BME280;55048;52.220;5.160;2023-08-12T05:14:44;101297.16;;;20.89;100.00
68230;BME280;55048;52.220;5.160;2023-08-12T05:17:10;101266.97;;;20.82;100.00
68230;BME280;55048;52.220;5.160;2023-08-12T05:19:36;101294.78;;;21.02;100.00
68230;BME280;55048;52.220;5.160;2023-08-12T05:22:02;101193.00;;;20.41;100.00
68230;BME280;55048;52.220;5.160;2023-08-12T05:24:27;101373.91;;;21.45;100.00
68230;BME280;55048;52.220;5.160;2023-08-12T05:26:53;101362.56;;;21.43;100.00
68230;BME280;55048;52.220;5.160;2023-08-12T05:29:18;101089.97;;;19.77;100.00
68230;BME280;55048;52.220;5.160;2023-08-12T05:31:43;101383.25;;;21.53;100.00
68230;BME280;55048;52.220;5.160;2023-08-12T05:34:09;101349.34;;;21.23;100.00
68230;BME280;55048;52.220;5.160;2023-08-12T05:36:35;101336.81;;;21.13;100.00
68230;BME280;55048;52.220;5.160;2023-08-12T05:39:01;101323.56;;;21.11;100.00
68230;BME280;55048;52.220;5.160;2023-08-12T05:41:26;101238.06;;;20.45;100.00
68230;BME280;55048;52.220;5.160;2023-08-12T05:43:51;101344.84;;;21.18;100.00
68230;BME280;55048;52.220;5.160;2023-08-12T05:46:17;101218.13;;;20.41;100.00
68230;BME280;55048;52.220;5.160;2023-08-12T05:48:42;101242.44;;;20.60;100.00
68230;BME280;55048;52.220;5.160;2023-08-12T05:51:08;101331.53;;;21.22;100.00
68230;BME280;55048;52.220;5.160;2023-08-12T05:53:33;101325.28;;;21.21;100.00
68230;BME280;55048;52.220;5.160;2023-08-12T05:55:59;101378.13;;;21.51;100.00
68230;BME280;55048;52.220;5.160;2023-08-12T05:58:24;101339.75;;;21.30;100.00
68230;BME280;55048;52.220;5.160;2023-08-12T06:00:50;101381.34;;;21.53;100.00
68230;BME280;55048;52.220;5.160;2023-08-12T06:03:16;101381.94;;;21.50;100.00
68230;BME280;55048;52.220;5.160;2023-08-12T06:05:44;101353.16;;;21.22;100.00
68230;BME280;55048;52.220;5.160;2023-08-12T06:08:09;101351.84;;;21.19;100.00
68230;BME280;55048;52.220;5.160;2023-08-12T06:10:35;101356.44;;;21.19;100.00
68230;BME280;55048;52.220;5.160;2023-08-12T06:13:00;101378.09;;;21.19;100.00
68230;BME280;55048;52.220;5.160;2023-08-12T06:15:26;101393.34;;;21.28;100.00
68230;BME280;55048;52.220;5.160;2023-08-12T06:17:51;101350.13;;;20.91;100.00
68230;BME280;55048;52.220;5.160;2023-08-12T06:20:16;101382.47;;;21.14;100.00
68230;BME280;55048;52.220;5.160;2023-08-12T06:22:42;101356.69;;;21.03;100.00
68230;BME280;55048;52.220;5.160;2023-08-12T06:25:07;101395.34;;;21.23;100.00
68230;BME280;55048;52.220;5.160;2023-08-12T06:27:33;101341.41;;;20.94;100.00
68230;BME280;55048;52.220;5.160;2023-08-12T06:29:58;101411.94;;;21.35;100.00
68230;BME280;55048;52.220;5.160;2023-08-12T06:32:24;101341.13;;;20.95;100.00
68230;BME280;55048;52.220;5.160;2023-08-12T06:34:49;101391.31;;;21.20;100.00
68230;BME280;55048;52.220;5.160;2023-08-12T06:37:15;101326.00;;;20.94;100.00
68230;BME280;55048;52.220;5.160;2023-08-12T06:39:40;101284.72;;;20.70;100.00
68230;BME280;55048;52.220;5.160;2023-08-12T06:42:05;101280.88;;;20.57;100.00
68230;BME280;55048;52.220;5.160;2023-08-12T06:44:32;101242.34;;;20.46;100.00
68230;BME280;55048;52.220;5.160;2023-08-12T06:46:57;101319.28;;;20.92;100.00
68230;BME280;55048;52.220;5.160;2023-08-12T06:49:23;101339.28;;;21.09;100.00
68230;BME280;55048;52.220;5.160;2023-08-12T06:51:48;101345.56;;;21.05;100.00
68230;BME280;55048;52.220;5.160;2023-08-12T06:54:13;101342.66;;;21.01;100.00
68230;BME280;55048;52.220;5.160;2023-08-12T06:56:39;101341.78;;;21.06;100.00
68230;BME280;55048;52.220;5.160;2023-08-12T06:59:04;101359.75;;;21.15;100.00
68230;BME280;55048;52.220;5.160;2023-08-12T07:01:30;101349.81;;;21.11;100.00
68230;BME280;55048;52.220;5.160;2023-08-12T07:03:55;101271.59;;;20.63;100.00
68230;BME280;55048;52.220;5.160;2023-08-12T07:06:22;101340.00;;;21.15;100.00
68230;BME280;55048;52.220;5.160;2023-08-12T07:08:47;101301.31;;;20.82;100.00
68230;BME280;55048;52.220;5.160;2023-08-12T07:11:13;101346.88;;;21.07;100.00
68230;BME280;55048;52.220;5.160;2023-08-12T07:13:38;101283.34;;;20.72;100.00
68230;BME280;55048;52.220;5.160;2023-08-12T07:16:04;101297.50;;;20.83;100.00
68230;BME280;55048;52.220;5.160;2023-08-12T07:18:29;101307.09;;;20.94;100.00
68230;BME280;55048;52.220;5.160;2023-08-12T07:20:54;101346.13;;;21.21;100.00
68230;BME280;55048;52.220;5.160;2023-08-12T07:23:20;101120.75;;;19.76;100.00
68230;BME280;55048;52.220;5.160;2023-08-12T07:25:46;101307.66;;;20.91;100.00
68230;BME280;55048;52.220;5.160;2023-08-12T07:28:12;101292.81;;;20.88;100.00
68230;BME280;55048;52.220;5.160;2023-08-12T07:30:37;101336.72;;;21.18;100.00
68230;BME280;55048;52.220;5.160;2023-08-12T07:33:04;101334.28;;;21.17;100.00
68230;BME280;55048;52.220;5.160;2023-08-12T07:35:29;101238.94;;;20.59;100.00
68230;BME280;55048;52.220;5.160;2023-08-12T07:37:55;101326.63;;;21.24;100.00
68230;BME280;55048;52.220;5.160;2023-08-12T07:40:20;101308.97;;;21.12;100.00
68230;BME280;55048;52.220;5.160;2023-08-12T07:42:46;101313.75;;;21.15;100.00
68230;BME280;55048;52.220;5.160;2023-08-12T07:45:11;101319.59;;;21.23;100.00
68230;BME280;55048;52.220;5.160;2023-08-12T07:47:36;101262.38;;;20.83;100.00
68230;BME280;55048;52.220;5.160;2023-08-12T07:50:02;101308.56;;;21.19;100.00
68230;BME280;55048;52.220;5.160;2023-08-12T07:52:27;101345.16;;;21.30;100.00
68230;BME280;55048;52.220;5.160;2023-08-12T07:54:53;101275.94;;;20.97;100.00
68230;BME280;55048;52.220;5.160;2023-08-12T07:57:18;101322.72;;;21.30;100.00
68230;BME280;55048;52.220;5.160;2023-08-12T07:59:45;101340.13;;;21.43;100.00
68230;BME280;55048;52.220;5.160;2023-08-12T08:02:11;101223.69;;;20.69;100.00
68230;BME280;55048;52.220;5.160;2023-08-12T08:04:37;101249.59;;;20.70;100.00
68230;BME280;55048;52.220;5.160;2023-08-12T08:07:02;101227.56;;;20.62;100.00
68230;BME280;55048;52.220;5.160;2023-08-12T08:09:28;101285.28;;;21.04;100.00
68230;BME280;55048;52.220;5.160;2023-08-12T08:11:54;101256.97;;;20.83;100.00
68230;BME280;55048;52.220;5.160;2023-08-12T08:14:19;101328.69;;;21.32;100.00
68230;BME280;55048;52.220;5.160;2023-08-12T08:16:45;101257.91;;;20.92;100.00
68230;BME280;55048;52.220;5.160;2023-08-12T08:19:10;101339.00;;;21.44;100.00
68230;BME280;55048;52.220;5.160;2023-08-12T08:21:36;101339.53;;;21.46;100.00
68230;BME280;55048;52.220;5.160;2023-08-12T08:24:02;101299.41;;;20.82;100.00
68230;BME280;55048;52.220;5.160;2023-08-12T08:26:27;101334.50;;;21.39;100.00
68230;BME280;55048;52.220;5.160;2023-08-12T08:28:53;101358.56;;;21.41;100.00
68230;BME280;55048;52.220;5.160;2023-08-12T08:31:18;101344.03;;;21.18;100.00
68230;BME280;55048;52.220;5.160;2023-08-12T08:33:44;101385.03;;;21.25;100.00
68230;BME280;55048;52.220;5.160;2023-08-12T08:36:09;101303.66;;;20.08;100.00
68230;BME280;55048;52.220;5.160;2023-08-12T08:38:35;101346.28;;;20.11;99.82
68230;BME280;55048;52.220;5.160;2023-08-12T08:41:02;101366.81;;;19.83;98.50
68230;BME280;55048;52.220;5.160;2023-08-12T08:43:31;101288.88;;;18.89;98.05
68230;BME280;55048;52.220;5.160;2023-08-12T08:45:58;101377.41;;;19.06;97.14
68230;BME280;55048;52.220;5.160;2023-08-12T08:48:25;101407.97;;;19.30;97.53
68230;BME280;55048;52.220;5.160;2023-08-12T08:50:50;101420.88;;;19.38;98.33
68230;BME280;55048;52.220;5.160;2023-08-12T08:53:18;101398.06;;;19.26;97.33
68230;BME280;55048;52.220;5.160;2023-08-12T08:55:44;101339.78;;;18.91;97.76
68230;BME280;55048;52.220;5.160;2023-08-12T08:58:09;101372.22;;;19.15;97.61
68230;BME280;55048;52.220;5.160;2023-08-12T09:00:36;101395.19;;;19.46;97.78
68230;BME280;55048;52.220;5.160;2023-08-12T09:03:04;101340.97;;;19.14;98.74
68230;BME280;55048;52.220;5.160;2023-08-12T09:05:30;101335.94;;;19.36;98.13
68230;BME280;55048;52.220;5.160;2023-08-12T09:07:57;101378.34;;;19.59;98.13
68230;BME280;55048;52.220;5.160;2023-08-12T09:10:26;101413.69;;;19.63;98.14
68230;BME280;55048;52.220;5.160;2023-08-12T09:12:53;101324.53;;;19.10;97.73
68230;BME280;55048;52.220;5.160;2023-08-12T09:15:20;101375.50;;;19.46;97.39
68230;BME280;55048;52.220;5.160;2023-08-12T09:17:45;101363.56;;;19.52;97.47
68230;BME280;55048;52.220;5.160;2023-08-12T09:20:11;101369.47;;;19.59;97.71
68230;BME280;55048;52.220;5.160;2023-08-12T09:22:38;101313.63;;;19.25;97.33
68230;BME280;55048;52.220;5.160;2023-08-12T09:25:04;101371.69;;;19.81;96.99
68230;BME280;55048;52.220;5.160;2023-08-12T09:27:35;101379.97;;;19.90;95.83
68230;BME280;55048;52.220;5.160;2023-08-12T09:30:03;101328.00;;;19.50;95.76
68230;BME280;55048;52.220;5.160;2023-08-12T09:32:28;101411.47;;;20.23;95.37
68230;BME280;55048;52.220;5.160;2023-08-12T09:34:54;101400.28;;;20.35;95.41
68230;BME280;55048;52.220;5.160;2023-08-12T09:37:23;101377.88;;;20.34;95.06
68230;BME280;55048;52.220;5.160;2023-08-12T09:39:50;101405.13;;;20.62;94.26
68230;BME280;55048;52.220;5.160;2023-08-12T09:42:16;101404.97;;;20.72;93.83
68230;BME280;55048;52.220;5.160;2023-08-12T09:44:42;101393.69;;;20.89;93.71
68230;BME280;55048;52.220;5.160;2023-08-12T09:47:08;101169.88;;;19.54;93.04
68230;BME280;55048;52.220;5.160;2023-08-12T09:49:35;101402.06;;;21.06;92.97
68230;BME280;55048;52.220;5.160;2023-08-12T09:52:01;101418.22;;;21.11;92.21
68230;BME280;55048;52.220;5.160;2023-08-12T09:54:28;101400.69;;;20.90;93.09
68230;BME280;55048;52.220;5.160;2023-08-12T09:56:58;101438.47;;;21.14;92.07
68230;BME280;55048;52.220;5.160;2023-08-12T09:59:24;101421.44;;;21.13;92.19
68230;BME280;55048;52.220;5.160;2023-08-12T10:01:52;101371.53;;;21.06;91.25
68230;BME280;55048;52.220;5.160;2023-08-12T10:04:22;101338.69;;;20.94;90.92
68230;BME280;55048;52.220;5.160;2023-08-12T10:06:48;101438.88;;;21.78;89.58
68230;BME280;55048;52.220;5.160;2023-08-12T10:09:18;101446.31;;;22.00;88.42
68230;BME280;55048;52.220;5.160;2023-08-12T10:11:45;101370.97;;;21.74;88.87
68230;BME280;55048;52.220;5.160;2023-08-12T10:14:12;101407.72;;;22.08;88.84
68230;BME280;55048;52.220;5.160;2023-08-12T10:16:38;101439.34;;;22.67;87.35
68230;BME280;55048;52.220;5.160;2023-08-12T10:19:11;101434.81;;;22.77;84.33
68230;BME280;55048;52.220;5.160;2023-08-12T10:21:37;101429.97;;;22.87;83.69
68230;BME280;55048;52.220;5.160;2023-08-12T10:24:03;101425.47;;;22.97;84.13
68230;BME280;55048;52.220;5.160;2023-08-12T10:26:30;101359.56;;;22.46;83.56
68230;BME280;55048;52.220;5.160;2023-08-12T10:28:59;101453.91;;;22.99;82.96
68230;BME280;55048;52.220;5.160;2023-08-12T10:31:26;101416.34;;;22.92;83.09
68230;BME280;55048;52.220;5.160;2023-08-12T10:33:53;101433.13;;;23.17;82.98
68230;BME280;55048;52.220;5.160;2023-08-12T10:36:21;101321.34;;;22.70;81.25
68230;BME280;55048;52.220;5.160;2023-08-12T10:38:47;101383.31;;;23.35;81.02
68230;BME280;55048;52.220;5.160;2023-08-12T10:41:23;101412.00;;;23.73;80.05
68230;BME280;55048;52.220;5.160;2023-08-12T10:46:34;101416.22;;;23.87;76.41
68230;BME280;55048;52.220;5.160;2023-08-12T10:49:05;101439.31;;;23.99;74.43
68230;BME280;55048;52.220;5.160;2023-08-12T11:02:36;101427.59;;;24.21;66.50
68230;BME280;55048;52.220;5.160;2023-08-12T11:05:10;101360.84;;;23.66;66.11
68230;BME280;55048;52.220;5.160;2023-08-12T11:07:49;101440.63;;;24.10;66.38
68230;BME280;55048;52.220;5.160;2023-08-12T11:10:25;101383.28;;;23.80;62.04
68230;BME280;55048;52.220;5.160;2023-08-12T11:15:16;101418.44;;;24.16;67.07
68230;BME280;55048;52.220;5.160;2023-08-12T11:17:43;101429.28;;;24.39;67.27
68230;BME280;55048;52.220;5.160;2023-08-12T11:20:12;101353.63;;;23.92;66.18
68230;BME280;55048;52.220;5.160;2023-08-12T11:22:42;101424.19;;;24.15;65.76
68230;BME280;55048;52.220;5.160;2023-08-12T11:25:11;101410.59;;;24.55;65.81
68230;BME280;55048;52.220;5.160;2023-08-12T11:27:44;101413.84;;;24.91;66.08
68230;BME280;55048;52.220;5.160;2023-08-12T11:30:12;101423.47;;;25.06;66.50
68230;BME280;55048;52.220;5.160;2023-08-12T11:32:41;101405.19;;;24.98;64.94
68230;BME280;55048;52.220;5.160;2023-08-12T11:35:08;101427.47;;;24.91;63.14
68230;BME280;55048;52.220;5.160;2023-08-12T11:37:42;101343.38;;;24.38;64.52
68230;BME280;55048;52.220;5.160;2023-08-12T11:40:10;101424.56;;;24.97;64.91
68230;BME280;55048;52.220;5.160;2023-08-12T11:42:40;101412.41;;;25.03;65.56
68230;BME280;55048;52.220;5.160;2023-08-12T11:45:06;101395.66;;;25.09;65.83
68230;BME280;55048;52.220;5.160;2023-08-12T11:47:34;101372.72;;;24.93;63.70
68230;BME280;55048;52.220;5.160;2023-08-12T11:50:02;101336.69;;;24.70;62.68
68230;BME280;55048;52.220;5.160;2023-08-12T11:52:29;101321.50;;;24.69;62.66
68230;BME280;55048;52.220;5.160;2023-08-12T11:54:55;101388.88;;;24.98;62.68
68230;BME280;55048;52.220;5.160;2023-08-12T11:57:22;101347.41;;;24.75;62.64
68230;BME280;55048;52.220;5.160;2023-08-12T11:59:47;101301.19;;;24.66;62.74
68230;BME280;55048;52.220;5.160;2023-08-12T12:02:13;101305.34;;;24.81;62.31
68230;BME280;55048;52.220;5.160;2023-08-12T12:04:41;101287.91;;;24.82;61.59
68230;BME280;55048;52.220;5.160;2023-08-12T12:07:20;101302.31;;;24.74;60.28
68230;BME280;55048;52.220;5.160;2023-08-12T12:09:46;101398.31;;;25.44;60.81
68230;BME280;55048;52.220;5.160;2023-08-12T12:12:12;101413.34;;;25.59;60.37
68230;BME280;55048;52.220;5.160;2023-08-12T12:14:37;101364.56;;;25.28;58.79
68230;BME280;55048;52.220;5.160;2023-08-12T12:17:07;101421.31;;;25.73;58.89
68230;BME280;55048;52.220;5.160;2023-08-12T12:19:34;101422.13;;;25.82;59.15
68230;BME280;55048;52.220;5.160;2023-08-12T12:22:03;101380.56;;;25.38;57.40
68230;BME280;55048;52.220;5.160;2023-08-12T12:24:30;101362.47;;;24.81;55.09
68230;BME280;55048;52.220;5.160;2023-08-12T12:26:56;101398.66;;;25.34;56.34
68230;BME280;55048;52.220;5.160;2023-08-12T12:29:22;101431.31;;;25.42;55.97
68230;BME280;55048;52.220;5.160;2023-08-12T12:31:47;101407.78;;;25.29;55.64
68230;BME280;55048;52.220;5.160;2023-08-12T12:34:12;101307.28;;;24.72;57.25
68230;BME280;55048;52.220;5.160;2023-08-12T12:36:40;101425.69;;;25.65;55.91
68230;BME280;55048;52.220;5.160;2023-08-12T12:39:06;101411.72;;;25.66;55.30
68230;BME280;55048;52.220;5.160;2023-08-12T12:41:32;101434.28;;;25.93;54.82
68230;BME280;55048;52.220;5.160;2023-08-12T12:44:00;101425.53;;;25.79;54.50
68230;BME280;55048;52.220;5.160;2023-08-12T12:46:27;101433.59;;;26.05;53.79
68230;BME280;55048;52.220;5.160;2023-08-12T12:48:53;101398.72;;;25.72;53.71
68230;BME280;55048;52.220;5.160;2023-08-12T12:51:18;101368.19;;;25.40;52.96
68230;BME280;55048;52.220;5.160;2023-08-12T12:53:43;101444.16;;;26.06;53.02
68230;BME280;55048;52.220;5.160;2023-08-12T12:56:09;101395.69;;;25.82;52.41
68230;BME280;55048;52.220;5.160;2023-08-12T12:58:41;101427.00;;;26.06;51.87
68230;BME280;55048;52.220;5.160;2023-08-12T13:01:06;101411.31;;;26.03;53.03
68230;BME280;55048;52.220;5.160;2023-08-12T13:03:32;101437.19;;;26.26;51.57
68230;BME280;55048;52.220;5.160;2023-08-12T13:05:58;101393.53;;;25.97;51.43